Terminal Aerodrome Forecast
Issued by NWS Buffalo, NY

Home | Current Version | Previous Version | Text Only | Print | Product List | Glossary On
Versions: 1 2 3 4 5 6 7 8 9 10 11 12 13 14 15 16 17 18 19 20 21 22 23
000
FTUS41 KBUF 252339
TAFART
TAF
KART 252339Z 2600/2624 22005KT P6SM FEW080
     FM260200 VRB03KT P6SM SKC
     FM261500 VRB05KT P6SM FEW060 SCT250
     FM261700 25004KT P6SM BKN045 BKN250
     FM262000 15004KT P6SM SCT060 BKN100=

USA.gov is the U.S. government's official web portal to all federal, state and local government web resources and services.